createdAt,value
2022-10-14T14:34:18.190Z,14.92
2022-10-14T14:35:23.310Z,14.89
2022-10-14T14:36:49.984Z,14.85
2022-10-14T14:37:56.408Z,14.85
2022-10-14T14:39:01.869Z,14.87
2022-10-14T14:40:10.037Z,14.81
2022-10-14T14:41:18.780Z,14.86
2022-10-14T14:42:25.698Z,14.87
2022-10-14T14:43:34.568Z,14.81
2022-10-14T14:44:43.545Z,14.86
2022-10-14T14:45:46.592Z,14.90
2022-10-14T14:46:52.601Z,14.90
2022-10-14T14:47:56.986Z,14.84
2022-10-14T14:49:02.761Z,14.75
2022-10-14T14:50:31.422Z,14.67
2022-10-14T14:51:39.584Z,14.72
2022-10-14T14:52:42.626Z,14.65
2022-10-14T14:53:52.358Z,14.61
2022-10-14T14:54:56.972Z,14.52
2022-10-14T14:56:03.327Z,14.53
2022-10-14T14:57:11.042Z,14.52
2022-10-14T14:58:23.482Z,14.66
2022-10-14T14:59:32.295Z,14.65
2022-10-14T15:00:34.379Z,14.53
2022-10-14T15:01:39.157Z,14.58
2022-10-14T15:02:41.452Z,14.45
2022-10-14T15:04:12.549Z,14.41
2022-10-14T15:05:23.469Z,14.42
2022-10-14T15:06:26.535Z,14.40
2022-10-14T15:07:31.728Z,14.33
2022-10-14T15:08:36.902Z,14.36
2022-10-14T15:09:45.715Z,14.17
2022-10-14T15:10:50.491Z,14.21
2022-10-14T15:11:57.979Z,14.25
2022-10-14T15:13:02.554Z,14.06
2022-10-14T15:14:07.600Z,14.01
2022-10-14T15:15:26.815Z,14.00
2022-10-14T15:16:36.434Z,13.89
2022-10-14T15:17:43.265Z,13.77
2022-10-14T15:18:45.396Z,13.69
2022-10-14T15:19:50.047Z,13.75
2022-10-14T15:21:06.175Z,13.69
2022-10-14T15:22:29.970Z,13.63
2022-10-14T15:23:46.239Z,13.65
2022-10-14T15:25:02.722Z,13.60
2022-10-14T15:26:07.675Z,13.64
2022-10-14T15:27:30.930Z,13.62
2022-10-14T15:28:37.928Z,13.60
2022-10-14T15:29:40.057Z,13.62
2022-10-14T15:31:02.947Z,13.61
2022-10-14T15:32:14.595Z,13.63
2022-10-14T15:33:21.571Z,13.67
2022-10-14T15:34:23.654Z,13.56
2022-10-14T15:35:29.242Z,13.56
2022-10-14T15:36:35.081Z,13.49
2022-10-14T15:37:40.007Z,13.59
2022-10-14T15:38:44.813Z,13.63
2022-10-14T15:40:02.455Z,13.54
2022-10-14T15:41:07.953Z,13.53
2022-10-14T15:42:12.285Z,13.52
2022-10-14T15:43:18.461Z,13.41
2022-10-14T15:44:20.624Z,13.38
2022-10-14T15:45:25.886Z,13.34
2022-10-14T15:46:43.476Z,13.32
2022-10-14T15:47:46.652Z,13.27
2022-10-14T15:48:55.091Z,13.21
2022-10-14T15:49:57.477Z,13.23
2022-10-14T15:51:02.112Z,13.16
2022-10-14T15:52:09.428Z,13.15
2022-10-14T15:53:14.241Z,13.13
2022-10-14T15:54:17.022Z,13.14
2022-10-14T15:55:24.059Z,13.10
2022-10-14T15:56:26.329Z,13.16
2022-10-14T15:57:31.064Z,13.15
2022-10-14T15:58:33.875Z,13.17
2022-10-14T15:59:38.511Z,13.16
2022-10-14T16:00:46.213Z,13.18
2022-10-14T16:01:48.540Z,13.24
2022-10-14T16:02:58.589Z,13.23
2022-10-14T16:04:00.738Z,13.25
2022-10-14T16:05:21.094Z,13.25
2022-10-14T16:06:27.638Z,13.17
2022-10-14T16:07:32.791Z,13.11
2022-10-14T16:08:37.955Z,13.17
2022-10-14T16:09:42.845Z,13.20
2022-10-14T16:10:45.830Z,13.15
2022-10-14T16:11:57.283Z,13.12
2022-10-14T16:13:01.795Z,13.11
2022-10-14T16:14:04.217Z,13.05
2022-10-14T16:15:24.519Z,13.02
2022-10-14T16:16:34.229Z,12.98
2022-10-14T16:17:36.694Z,13.04
2022-10-14T16:18:42.029Z,13.05
2022-10-14T16:19:44.262Z,13.01
2022-10-14T16:20:49.295Z,12.99
2022-10-14T16:21:51.380Z,12.95
2022-10-14T16:22:58.658Z,12.94
2022-10-14T16:24:02.427Z,12.90
2022-10-14T16:25:07.990Z,12.89
2022-10-14T16:26:17.329Z,12.93
2022-10-14T16:27:25.477Z,12.94
2022-10-14T16:28:30.256Z,12.89
2022-10-14T16:29:32.457Z,12.92
2022-10-14T16:30:38.003Z,12.93
2022-10-14T16:31:43.300Z,12.87
2022-10-14T16:32:45.713Z,12.88
2022-10-14T16:33:54.732Z,12.90
2022-10-14T16:34:59.352Z,12.86
2022-10-14T16:36:02.267Z,12.87
2022-10-14T16:37:07.256Z,12.84
2022-10-14T16:38:15.222Z,12.81
2022-10-14T16:39:17.992Z,12.82
2022-10-14T16:40:22.760Z,12.90
2022-10-14T16:41:25.323Z,12.88
2022-10-14T16:42:29.967Z,12.93
2022-10-14T16:43:32.103Z,13.02
2022-10-14T16:44:36.766Z,12.97
2022-10-14T16:45:41.463Z,13.02
2022-10-14T16:46:58.511Z,13.01
2022-10-14T16:48:03.238Z,12.94
2022-10-14T16:49:06.948Z,12.94
2022-10-14T16:50:13.164Z,12.95
2022-10-14T16:51:15.595Z,12.95
2022-10-14T16:52:21.549Z,12.89
2022-10-14T16:53:45.182Z,12.84
2022-10-14T16:54:50.055Z,12.76
2022-10-14T16:55:52.155Z,12.73
2022-10-14T16:56:57.008Z,12.71
2022-10-14T16:58:02.053Z,12.75
2022-10-14T16:59:05.563Z,12.71
2022-10-14T17:00:11.736Z,12.72
2022-10-14T17:01:13.890Z,12.67
2022-10-14T17:02:21.426Z,12.66
2022-10-14T17:03:23.786Z,12.65
2022-10-14T17:04:29.345Z,12.62
2022-10-14T17:05:34.065Z,12.61
2022-10-14T17:06:36.086Z,12.59
2022-10-14T17:07:40.783Z,12.57
2022-10-14T17:08:45.385Z,12.57
2022-10-14T17:09:50.049Z,12.53
2022-10-14T17:10:56.725Z,12.52
2022-10-14T17:12:01.962Z,12.55
2022-10-14T17:13:04.440Z,12.54
2022-10-14T17:14:09.145Z,12.54
2022-10-14T17:15:12.599Z,12.57
2022-10-14T17:16:17.402Z,12.50
2022-10-14T17:17:24.198Z,12.49
2022-10-14T17:18:29.019Z,12.48
2022-10-14T17:19:35.807Z,12.46
2022-10-14T17:20:38.345Z,12.43
2022-10-14T17:21:44.069Z,12.42
2022-10-14T17:22:49.855Z,12.48
2022-10-14T17:23:54.513Z,12.47
2022-10-14T17:25:00.347Z,12.47
2022-10-14T17:26:03.233Z,12.44
2022-10-14T17:27:07.995Z,12.42
2022-10-14T17:28:12.838Z,12.42
2022-10-14T17:29:17.780Z,12.46
2022-10-14T17:30:19.869Z,12.44
2022-10-14T17:31:25.419Z,12.43
2022-10-14T17:32:30.453Z,12.41
2022-10-14T17:33:34.536Z,12.41
2022-10-14T17:34:39.181Z,12.40
2022-10-14T17:35:41.495Z,12.39
2022-10-14T17:36:46.284Z,12.43
2022-10-14T17:37:48.398Z,12.43
2022-10-14T17:38:57.579Z,12.40
2022-10-14T17:40:02.225Z,12.45
2022-10-14T17:41:05.623Z,12.47
2022-10-14T17:42:10.618Z,12.42
2022-10-14T17:43:14.360Z,12.40
2022-10-14T17:44:18.998Z,12.43
2022-10-14T17:45:21.177Z,12.44
2022-10-14T17:46:29.394Z,12.41
2022-10-14T17:47:31.479Z,12.36
2022-10-14T17:48:39.527Z,12.35
2022-10-14T17:49:44.326Z,12.34
2022-10-14T17:50:48.697Z,12.38
2022-10-14T18:26:31.787Z,12.09
2022-10-14T18:27:34.088Z,12.09
2022-10-14T18:28:40.574Z,12.07
2022-10-14T18:29:45.337Z,12.05
2022-10-14T18:30:47.468Z,12.11
2022-10-14T18:33:17.918Z,12.06
2022-10-14T18:34:20.068Z,12.04
2022-10-14T18:35:25.020Z,12.09
2022-10-14T18:36:28.800Z,12.11
2022-10-14T18:37:33.808Z,12.09
2022-10-14T18:38:36.975Z,12.10
2022-10-14T18:39:41.757Z,12.08
2022-10-14T18:40:43.854Z,12.10
2022-10-14T18:41:51.338Z,12.09
2022-10-14T18:42:57.550Z,12.08
2022-10-14T18:44:02.917Z,12.08
2022-10-14T18:45:06.119Z,12.05
2022-10-14T18:46:13.903Z,12.05
2022-10-14T18:47:18.767Z,12.04
2022-10-14T18:48:22.265Z,12.04
2022-10-14T18:49:27.074Z,12.05
2022-10-14T18:50:29.260Z,12.07
2022-10-14T18:51:36.114Z,12.07
2022-10-14T18:52:38.175Z,12.06
2022-10-14T18:53:45.084Z,12.05
2022-10-14T18:54:47.231Z,12.05
2022-10-14T18:55:51.976Z,12.05
2022-10-14T18:56:59.790Z,12.05
2022-10-14T18:58:04.469Z,12.07
2022-10-14T18:59:09.199Z,12.06
2022-10-14T19:00:15.719Z,12.07
2022-10-14T19:01:20.622Z,12.06
2022-10-14T19:02:23.045Z,12.08
2022-10-14T19:03:28.013Z,12.07
2022-10-14T19:04:30.138Z,12.09
2022-10-14T19:05:38.681Z,12.07
2022-10-14T19:06:45.004Z,12.08
2022-10-14T19:07:47.428Z,12.09
2022-10-14T19:08:53.074Z,12.08
2022-10-14T19:09:58.055Z,12.10
2022-10-14T19:11:03.736Z,12.08
2022-10-14T19:12:23.771Z,12.02
2022-10-14T19:13:29.258Z,12.00
2022-10-14T19:14:32.012Z,12.00
2022-10-14T19:15:45.263Z,11.97
2022-10-14T19:16:51.496Z,11.95
2022-10-14T19:17:58.907Z,11.91
2022-10-14T19:19:08.185Z,11.90
2022-10-14T19:20:10.697Z,11.91
2022-10-14T19:21:19.541Z,11.88
2022-10-14T19:22:24.746Z,11.87
2022-10-14T19:23:27.140Z,11.83
2022-10-14T19:24:31.902Z,11.81
2022-10-14T19:25:36.827Z,11.80
2022-10-14T19:26:43.813Z,11.77
2022-10-14T19:27:48.654Z,11.73
2022-10-14T19:28:54.845Z,11.70
2022-10-14T19:29:57.606Z,11.65
2022-10-14T19:31:06.905Z,11.58
2022-10-14T19:32:09.086Z,11.56
2022-10-14T19:33:13.908Z,11.51
2022-10-14T19:34:17.146Z,11.50
2022-10-14T19:35:22.058Z,11.48
2022-10-14T19:36:25.757Z,11.44
2022-10-14T19:37:30.592Z,11.45
2022-10-14T19:38:33.166Z,11.43
2022-10-14T19:39:38.149Z,11.41
2022-10-14T19:40:40.451Z,11.42
2022-10-14T19:41:47.552Z,11.42
2022-10-14T19:42:52.588Z,11.41
2022-10-14T19:43:58.864Z,11.39
